sensor_id;sensor_type;location;lat;lon;timestamp;temperature;humidity
77052;SHT30;65980;44.898;8.602;2023-07-16T00:01:38;24.47;56.84
77052;SHT30;65980;44.898;8.602;2023-07-16T00:04:41;24.61;56.42
77052;SHT30;65980;44.898;8.602;2023-07-16T00:07:46;24.53;56.22
77052;SHT30;65980;44.898;8.602;2023-07-16T00:10:51;24.38;56.75
77052;SHT30;65980;44.898;8.602;2023-07-16T00:13:56;24.53;55.47
77052;SHT30;65980;44.898;8.602;2023-07-16T00:16:59;24.50;55.41
77052;SHT30;65980;44.898;8.602;2023-07-16T00:20:04;24.44;55.48
77052;SHT30;65980;44.898;8.602;2023-07-16T00:23:10;24.38;55.40
77052;SHT30;65980;44.898;8.602;2023-07-16T00:26:13;24.26;55.68
77052;SHT30;65980;44.898;8.602;2023-07-16T00:29:21;24.14;56.00
77052;SHT30;65980;44.898;8.602;2023-07-16T00:32:25;24.30;55.82
77052;SHT30;65980;44.898;8.602;2023-07-16T00:35:30;24.37;55.67
77052;SHT30;65980;44.898;8.602;2023-07-16T00:38:34;24.33;55.90
77052;SHT30;65980;44.898;8.602;2023-07-16T00:41:39;24.38;55.78
77052;SHT30;65980;44.898;8.602;2023-07-16T00:44:44;24.03;56.32
77052;SHT30;65980;44.898;8.602;2023-07-16T00:47:47;23.69;57.16
77052;SHT30;65980;44.898;8.602;2023-07-16T00:50:53;23.89;57.08
77052;SHT30;65980;44.898;8.602;2023-07-16T00:53:58;23.79;57.12
77052;SHT30;65980;44.898;8.602;2023-07-16T00:57:01;23.96;56.87
77052;SHT30;65980;44.898;8.602;2023-07-16T01:00:06;24.03;56.59
77052;SHT30;65980;44.898;8.602;2023-07-16T01:03:13;24.02;56.57
77052;SHT30;65980;44.898;8.602;2023-07-16T01:06:40;24.10;56.31
77052;SHT30;65980;44.898;8.602;2023-07-16T01:09:45;24.09;56.43
77052;SHT30;65980;44.898;8.602;2023-07-16T01:12:51;23.86;57.21
77052;SHT30;65980;44.898;8.602;2023-07-16T01:15:56;23.98;56.90
77052;SHT30;65980;44.898;8.602;2023-07-16T01:19:02;24.13;56.25
77052;SHT30;65980;44.898;8.602;2023-07-16T01:22:10;24.00;56.71
77052;SHT30;65980;44.898;8.602;2023-07-16T01:25:48;23.75;57.61
77052;SHT30;65980;44.898;8.602;2023-07-16T01:32:11;23.75;57.74
77052;SHT30;65980;44.898;8.602;2023-07-16T01:35:15;23.86;57.62
77052;SHT30;65980;44.898;8.602;2023-07-16T01:38:19;23.83;57.70
77052;SHT30;65980;44.898;8.602;2023-07-16T01:41:25;23.74;58.19
77052;SHT30;65980;44.898;8.602;2023-07-16T01:44:29;23.71;58.49
77052;SHT30;65980;44.898;8.602;2023-07-16T01:50:53;23.61;58.63
77052;SHT30;65980;44.898;8.602;2023-07-16T01:53:58;23.55;58.98
77052;SHT30;65980;44.898;8.602;2023-07-16T01:57:03;23.44;59.18
77052;SHT30;65980;44.898;8.602;2023-07-16T02:00:08;23.21;59.75
77052;SHT30;65980;44.898;8.602;2023-07-16T02:03:23;23.11;60.09
77052;SHT30;65980;44.898;8.602;2023-07-16T02:06:27;22.95;60.83
77052;SHT30;65980;44.898;8.602;2023-07-16T02:09:33;22.71;61.63
77052;SHT30;65980;44.898;8.602;2023-07-16T02:12:38;22.51;62.50
77052;SHT30;65980;44.898;8.602;2023-07-16T02:15:43;22.58;62.07
77052;SHT30;65980;44.898;8.602;2023-07-16T02:18:47;22.55;62.16
77052;SHT30;65980;44.898;8.602;2023-07-16T02:21:53;22.85;61.43
77052;SHT30;65980;44.898;8.602;2023-07-16T02:24:59;22.89;61.60
77052;SHT30;65980;44.898;8.602;2023-07-16T02:28:03;22.93;61.66
77052;SHT30;65980;44.898;8.602;2023-07-16T02:31:08;22.96;61.58
77052;SHT30;65980;44.898;8.602;2023-07-16T02:34:12;22.79;62.12
77052;SHT30;65980;44.898;8.602;2023-07-16T02:37:17;22.64;62.94
77052;SHT30;65980;44.898;8.602;2023-07-16T02:40:21;22.64;62.84
77052;SHT30;65980;44.898;8.602;2023-07-16T02:43:26;22.45;63.58
77052;SHT30;65980;44.898;8.602;2023-07-16T02:46:33;22.55;63.60
77052;SHT30;65980;44.898;8.602;2023-07-16T02:49:37;22.68;63.22
77052;SHT30;65980;44.898;8.602;2023-07-16T02:52:42;22.51;63.99
77052;SHT30;65980;44.898;8.602;2023-07-16T02:55:46;22.41;63.92
77052;SHT30;65980;44.898;8.602;2023-07-16T02:58:51;22.51;63.67
77052;SHT30;65980;44.898;8.602;2023-07-16T03:01:55;22.61;63.66
77052;SHT30;65980;44.898;8.602;2023-07-16T03:04:59;22.49;63.82
77052;SHT30;65980;44.898;8.602;2023-07-16T03:08:04;22.44;64.31
77052;SHT30;65980;44.898;8.602;2023-07-16T03:11:08;22.45;64.25
77052;SHT30;65980;44.898;8.602;2023-07-16T03:14:13;22.41;64.18
77052;SHT30;65980;44.898;8.602;2023-07-16T03:17:17;22.29;64.48
77052;SHT30;65980;44.898;8.602;2023-07-16T03:20:21;22.23;64.79
77052;SHT30;65980;44.898;8.602;2023-07-16T03:23:26;22.36;64.46
77052;SHT30;65980;44.898;8.602;2023-07-16T03:26:30;22.25;65.35
77052;SHT30;65980;44.898;8.602;2023-07-16T03:29:36;22.40;64.72
77052;SHT30;65980;44.898;8.602;2023-07-16T03:32:41;22.14;65.31
77052;SHT30;65980;44.898;8.602;2023-07-16T03:35:47;22.03;65.93
77052;SHT30;65980;44.898;8.602;2023-07-16T03:38:51;21.94;65.96
77052;SHT30;65980;44.898;8.602;2023-07-16T03:41:55;21.42;68.18
77052;SHT30;65980;44.898;8.602;2023-07-16T03:44:59;21.54;67.79
77052;SHT30;65980;44.898;8.602;2023-07-16T03:48:03;21.54;67.93
77052;SHT30;65980;44.898;8.602;2023-07-16T03:51:08;21.83;66.89
77052;SHT30;65980;44.898;8.602;2023-07-16T03:54:13;21.88;66.92
77052;SHT30;65980;44.898;8.602;2023-07-16T03:57:17;22.02;66.43
77052;SHT30;65980;44.898;8.602;2023-07-16T04:00:21;22.14;65.89
77052;SHT30;65980;44.898;8.602;2023-07-16T04:03:27;22.18;65.82
77052;SHT30;65980;44.898;8.602;2023-07-16T04:06:31;22.34;65.37
77052;SHT30;65980;44.898;8.602;2023-07-16T04:09:39;22.25;65.75
77052;SHT30;65980;44.898;8.602;2023-07-16T04:12:43;22.24;66.11
77052;SHT30;65980;44.898;8.602;2023-07-16T04:15:47;22.17;66.61
77052;SHT30;65980;44.898;8.602;2023-07-16T04:18:51;21.99;67.30
77052;SHT30;65980;44.898;8.602;2023-07-16T04:21:56;22.18;66.61
77052;SHT30;65980;44.898;8.602;2023-07-16T04:25:00;22.34;66.51
77052;SHT30;65980;44.898;8.602;2023-07-16T04:28:05;22.20;66.93
77052;SHT30;65980;44.898;8.602;2023-07-16T04:31:09;22.36;66.67
77052;SHT30;65980;44.898;8.602;2023-07-16T04:34:13;22.47;66.05
77052;SHT30;65980;44.898;8.602;2023-07-16T04:37:18;22.43;66.27
77052;SHT30;65980;44.898;8.602;2023-07-16T04:40:22;22.48;65.98
77052;SHT30;65980;44.898;8.602;2023-07-16T04:43:26;22.54;66.04
77052;SHT30;65980;44.898;8.602;2023-07-16T04:46:30;22.57;66.10
77052;SHT30;65980;44.898;8.602;2023-07-16T04:49:35;22.43;66.81
77052;SHT30;65980;44.898;8.602;2023-07-16T04:52:40;22.54;66.27
77052;SHT30;65980;44.898;8.602;2023-07-16T04:55:45;22.66;66.20
77052;SHT30;65980;44.898;8.602;2023-07-16T04:58:49;22.75;65.84
77052;SHT30;65980;44.898;8.602;2023-07-16T05:01:53;22.86;65.77
77052;SHT30;65980;44.898;8.602;2023-07-16T05:04:57;22.96;64.84
77052;SHT30;65980;44.898;8.602;2023-07-16T05:08:01;23.00;64.94
77052;SHT30;65980;44.898;8.602;2023-07-16T05:11:05;22.91;65.44
77052;SHT30;65980;44.898;8.602;2023-07-16T05:14:09;22.76;65.66
77052;SHT30;65980;44.898;8.602;2023-07-16T05:17:14;22.83;66.05
77052;SHT30;65980;44.898;8.602;2023-07-16T05:20:18;22.75;66.11
77052;SHT30;65980;44.898;8.602;2023-07-16T05:23:22;22.79;66.31
77052;SHT30;65980;44.898;8.602;2023-07-16T05:26:26;22.77;66.61
77052;SHT30;65980;44.898;8.602;2023-07-16T05:29:30;22.89;66.23
77052;SHT30;65980;44.898;8.602;2023-07-16T05:32:35;22.81;66.54
77052;SHT30;65980;44.898;8.602;2023-07-16T05:35:39;22.73;66.93
77052;SHT30;65980;44.898;8.602;2023-07-16T05:38:43;22.69;67.17
77052;SHT30;65980;44.898;8.602;2023-07-16T05:41:47;22.99;66.49
77052;SHT30;65980;44.898;8.602;2023-07-16T05:44:52;23.07;66.40
77052;SHT30;65980;44.898;8.602;2023-07-16T05:47:56;23.40;66.00
77052;SHT30;65980;44.898;8.602;2023-07-16T05:51:00;23.38;65.61
77052;SHT30;65980;44.898;8.602;2023-07-16T05:54:04;23.27;65.86
77052;SHT30;65980;44.898;8.602;2023-07-16T05:57:09;23.27;65.70
77052;SHT30;65980;44.898;8.602;2023-07-16T06:00:13;23.54;65.19
77052;SHT30;65980;44.898;8.602;2023-07-16T06:03:20;23.75;64.49
77052;SHT30;65980;44.898;8.602;2023-07-16T06:06:27;23.83;64.54
77052;SHT30;65980;44.898;8.602;2023-07-16T06:09:33;24.05;64.38
77052;SHT30;65980;44.898;8.602;2023-07-16T06:12:37;24.24;64.00
77052;SHT30;65980;44.898;8.602;2023-07-16T06:15:41;24.69;62.77
77052;SHT30;65980;44.898;8.602;2023-07-16T06:18:45;25.06;62.08
77052;SHT30;65980;44.898;8.602;2023-07-16T06:21:49;25.24;61.25
77052;SHT30;65980;44.898;8.602;2023-07-16T06:24:53;25.24;61.21
77052;SHT30;65980;44.898;8.602;2023-07-16T06:27:57;25.40;61.85
77052;SHT30;65980;44.898;8.602;2023-07-16T06:31:01;25.62;61.39
77052;SHT30;65980;44.898;8.602;2023-07-16T06:34:05;25.72;61.05
77052;SHT30;65980;44.898;8.602;2023-07-16T06:37:09;25.78;60.93
77052;SHT30;65980;44.898;8.602;2023-07-16T06:40:13;26.17;60.41
77052;SHT30;65980;44.898;8.602;2023-07-16T06:43:17;26.45;60.18
77052;SHT30;65980;44.898;8.602;2023-07-16T06:46:22;26.47;59.79
77052;SHT30;65980;44.898;8.602;2023-07-16T06:49:29;26.77;59.46
77052;SHT30;65980;44.898;8.602;2023-07-16T06:52:33;26.64;60.07
77052;SHT30;65980;44.898;8.602;2023-07-16T06:55:37;26.74;60.16
77052;SHT30;65980;44.898;8.602;2023-07-16T06:58:41;26.89;60.24
77052;SHT30;65980;44.898;8.602;2023-07-16T07:01:45;27.05;60.03
77052;SHT30;65980;44.898;8.602;2023-07-16T07:04:50;27.03;60.56
77052;SHT30;65980;44.898;8.602;2023-07-16T07:07:54;26.94;61.28
77052;SHT30;65980;44.898;8.602;2023-07-16T07:10:58;27.22;60.83
77052;SHT30;65980;44.898;8.602;2023-07-16T07:14:02;27.22;61.21
77052;SHT30;65980;44.898;8.602;2023-07-16T07:17:06;27.55;60.52
77052;SHT30;65980;44.898;8.602;2023-07-16T07:20:10;27.76;60.30
77052;SHT30;65980;44.898;8.602;2023-07-16T07:23:15;27.95;60.15
77052;SHT30;65980;44.898;8.602;2023-07-16T07:26:20;27.71;61.01
77052;SHT30;65980;44.898;8.602;2023-07-16T07:29:24;27.71;61.51
77052;SHT30;65980;44.898;8.602;2023-07-16T07:32:29;27.95;61.27
77052;SHT30;65980;44.898;8.602;2023-07-16T07:35:33;28.33;60.71
77052;SHT30;65980;44.898;8.602;2023-07-16T07:38:37;28.70;59.62
77052;SHT30;65980;44.898;8.602;2023-07-16T07:41:41;28.74;59.85
77052;SHT30;65980;44.898;8.602;2023-07-16T07:44:45;28.61;60.51
77052;SHT30;65980;44.898;8.602;2023-07-16T07:47:49;28.71;59.93
77052;SHT30;65980;44.898;8.602;2023-07-16T07:50:53;28.87;59.96
77052;SHT30;65980;44.898;8.602;2023-07-16T07:53:57;28.95;59.57
77052;SHT30;65980;44.898;8.602;2023-07-16T07:57:03;28.94;59.84
77052;SHT30;65980;44.898;8.602;2023-07-16T08:00:08;29.05;59.62
77052;SHT30;65980;44.898;8.602;2023-07-16T08:03:16;29.26;58.35
77052;SHT30;65980;44.898;8.602;2023-07-16T08:06:20;29.56;57.63
77052;SHT30;65980;44.898;8.602;2023-07-16T08:09:26;29.63;56.78
77052;SHT30;65980;44.898;8.602;2023-07-16T08:12:30;29.54;56.99
77052;SHT30;65980;44.898;8.602;2023-07-16T08:15:34;29.78;56.06
77052;SHT30;65980;44.898;8.602;2023-07-16T08:18:39;29.73;56.35
77052;SHT30;65980;44.898;8.602;2023-07-16T08:21:44;30.13;55.58
77052;SHT30;65980;44.898;8.602;2023-07-16T08:24:48;30.41;55.25
77052;SHT30;65980;44.898;8.602;2023-07-16T08:27:52;30.49;53.87
77052;SHT30;65980;44.898;8.602;2023-07-16T08:30:56;30.40;54.30
77052;SHT30;65980;44.898;8.602;2023-07-16T08:34:00;30.33;54.38
77052;SHT30;65980;44.898;8.602;2023-07-16T08:37:04;29.98;55.23
77052;SHT30;65980;44.898;8.602;2023-07-16T08:40:10;30.52;53.86
77052;SHT30;65980;44.898;8.602;2023-07-16T08:43:15;30.88;52.68
77052;SHT30;65980;44.898;8.602;2023-07-16T08:46:20;31.15;52.14
77052;SHT30;65980;44.898;8.602;2023-07-16T08:49:25;31.54;51.52
77052;SHT30;65980;44.898;8.602;2023-07-16T08:52:30;31.63;51.03
77052;SHT30;65980;44.898;8.602;2023-07-16T08:55:34;31.63;51.06
77052;SHT30;65980;44.898;8.602;2023-07-16T08:58:43;31.59;50.96
77052;SHT30;65980;44.898;8.602;2023-07-16T09:01:48;31.08;51.43
77052;SHT30;65980;44.898;8.602;2023-07-16T09:04:55;31.25;51.43
77052;SHT30;65980;44.898;8.602;2023-07-16T09:07:59;31.11;52.38
77052;SHT30;65980;44.898;8.602;2023-07-16T09:11:03;31.54;50.51
77052;SHT30;65980;44.898;8.602;2023-07-16T09:14:07;31.18;51.51
77052;SHT30;65980;44.898;8.602;2023-07-16T09:17:11;31.26;50.99
77052;SHT30;65980;44.898;8.602;2023-07-16T09:20:16;31.47;50.40
77052;SHT30;65980;44.898;8.602;2023-07-16T09:23:20;31.77;49.39
77052;SHT30;65980;44.898;8.602;2023-07-16T09:26:24;31.67;50.10
77052;SHT30;65980;44.898;8.602;2023-07-16T09:29:28;31.66;50.61
77052;SHT30;65980;44.898;8.602;2023-07-16T09:32:36;31.90;50.66
77052;SHT30;65980;44.898;8.602;2023-07-16T09:35:42;31.39;52.19
77052;SHT30;65980;44.898;8.602;2023-07-16T09:38:46;31.32;52.23
77052;SHT30;65980;44.898;8.602;2023-07-16T09:41:53;31.45;52.25
77052;SHT30;65980;44.898;8.602;2023-07-16T09:44:59;31.22;50.49
77052;SHT30;65980;44.898;8.602;2023-07-16T09:48:05;31.42;50.12
77052;SHT30;65980;44.898;8.602;2023-07-16T09:51:11;31.70;49.56
77052;SHT30;65980;44.898;8.602;2023-07-16T09:54:16;31.77;49.20
77052;SHT30;65980;44.898;8.602;2023-07-16T09:57:21;31.98;49.72
77052;SHT30;65980;44.898;8.602;2023-07-16T10:00:27;31.80;49.90
77052;SHT30;65980;44.898;8.602;2023-07-16T10:03:32;31.87;50.09
77052;SHT30;65980;44.898;8.602;2023-07-16T10:06:48;32.15;46.74
77052;SHT30;65980;44.898;8.602;2023-07-16T10:09:54;32.22;48.42
77052;SHT30;65980;44.898;8.602;2023-07-16T10:13:03;32.24;47.77
77052;SHT30;65980;44.898;8.602;2023-07-16T10:16:07;32.42;46.87
77052;SHT30;65980;44.898;8.602;2023-07-16T10:19:23;32.28;47.95
77052;SHT30;65980;44.898;8.602;2023-07-16T10:22:38;32.92;46.95
77052;SHT30;65980;44.898;8.602;2023-07-16T10:25:59;33.90;44.69
77052;SHT30;65980;44.898;8.602;2023-07-16T10:29:07;35.86;40.21
77052;SHT30;65980;44.898;8.602;2023-07-16T10:32:11;36.48;39.00
77052;SHT30;65980;44.898;8.602;2023-07-16T10:35:15;36.83;38.08
77052;SHT30;65980;44.898;8.602;2023-07-16T10:38:19;36.63;37.36
77052;SHT30;65980;44.898;8.602;2023-07-16T10:41:23;35.94;39.06
77052;SHT30;65980;44.898;8.602;2023-07-16T10:44:28;35.51;39.58
77052;SHT30;65980;44.898;8.602;2023-07-16T10:47:34;34.63;42.27
77052;SHT30;65980;44.898;8.602;2023-07-16T10:50:38;34.32;43.03
77052;SHT30;65980;44.898;8.602;2023-07-16T10:53:43;34.25;42.66
77052;SHT30;65980;44.898;8.602;2023-07-16T10:56:48;33.79;42.05
77052;SHT30;65980;44.898;8.602;2023-07-16T10:59:53;33.77;43.26
77052;SHT30;65980;44.898;8.602;2023-07-16T11:02:57;33.94;43.34
77052;SHT30;65980;44.898;8.602;2023-07-16T11:06:10;33.48;44.25
77052;SHT30;65980;44.898;8.602;2023-07-16T11:09:19;34.47;43.37
77052;SHT30;65980;44.898;8.602;2023-07-16T11:12:25;35.62;40.97
77052;SHT30;65980;44.898;8.602;2023-07-16T11:15:39;37.09;37.60
77052;SHT30;65980;44.898;8.602;2023-07-16T11:18:44;36.68;38.05
77052;SHT30;65980;44.898;8.602;2023-07-16T11:21:49;36.33;38.51
77052;SHT30;65980;44.898;8.602;2023-07-16T11:24:54;36.17;38.54
77052;SHT30;65980;44.898;8.602;2023-07-16T11:28:01;35.40;39.97
77052;SHT30;65980;44.898;8.602;2023-07-16T11:31:16;35.51;39.61
77052;SHT30;65980;44.898;8.602;2023-07-16T11:34:20;35.97;38.77
77052;SHT30;65980;44.898;8.602;2023-07-16T11:37:28;35.82;39.67
77052;SHT30;65980;44.898;8.602;2023-07-16T11:40:34;35.42;39.72
77052;SHT30;65980;44.898;8.602;2023-07-16T11:43:40;35.14;40.24
77052;SHT30;65980;44.898;8.602;2023-07-16T11:46:46;34.87;40.95
77052;SHT30;65980;44.898;8.602;2023-07-16T11:49:51;34.00;42.75
77052;SHT30;65980;44.898;8.602;2023-07-16T11:52:59;34.41;42.09
77052;SHT30;65980;44.898;8.602;2023-07-16T11:56:05;34.68;42.12
77052;SHT30;65980;44.898;8.602;2023-07-16T11:59:09;34.58;42.75
77052;SHT30;65980;44.898;8.602;2023-07-16T12:02:13;34.70;42.65
77052;SHT30;65980;44.898;8.602;2023-07-16T12:05:22;34.34;41.22
77052;SHT30;65980;44.898;8.602;2023-07-16T12:08:31;34.23;41.76
77052;SHT30;65980;44.898;8.602;2023-07-16T12:11:37;34.41;42.07
77052;SHT30;65980;44.898;8.602;2023-07-16T12:14:42;34.42;42.00
77052;SHT30;65980;44.898;8.602;2023-07-16T12:17:46;34.44;41.41
77052;SHT30;65980;44.898;8.602;2023-07-16T12:20:50;34.41;41.85
77052;SHT30;65980;44.898;8.602;2023-07-16T12:23:54;34.11;42.22
77052;SHT30;65980;44.898;8.602;2023-07-16T12:26:59;34.23;42.04
77052;SHT30;65980;44.898;8.602;2023-07-16T12:30:04;34.37;42.26
77052;SHT30;65980;44.898;8.602;2023-07-16T12:33:09;34.08;42.45
77052;SHT30;65980;44.898;8.602;2023-07-16T12:36:14;34.13;43.16
77052;SHT30;65980;44.898;8.602;2023-07-16T12:39:18;34.24;42.62
77052;SHT30;65980;44.898;8.602;2023-07-16T12:42:23;34.25;42.85
77052;SHT30;65980;44.898;8.602;2023-07-16T12:45:27;34.32;42.65
77052;SHT30;65980;44.898;8.602;2023-07-16T12:48:31;33.98;42.66
77052;SHT30;65980;44.898;8.602;2023-07-16T12:51:36;33.36;44.09
77052;SHT30;65980;44.898;8.602;2023-07-16T12:54:40;33.35;44.05
77052;SHT30;65980;44.898;8.602;2023-07-16T12:57:44;33.46;42.93
77052;SHT30;65980;44.898;8.602;2023-07-16T13:00:48;33.77;43.14
77052;SHT30;65980;44.898;8.602;2023-07-16T13:03:52;33.81;42.67
77052;SHT30;65980;44.898;8.602;2023-07-16T13:06:56;33.90;42.72
77052;SHT30;65980;44.898;8.602;2023-07-16T13:10:00;34.04;42.39
77052;SHT30;65980;44.898;8.602;2023-07-16T13:13:05;33.92;42.40
77052;SHT30;65980;44.898;8.602;2023-07-16T13:16:09;34.11;43.04
77052;SHT30;65980;44.898;8.602;2023-07-16T13:19:14;34.35;42.39
77052;SHT30;65980;44.898;8.602;2023-07-16T13:22:18;33.97;42.86
77052;SHT30;65980;44.898;8.602;2023-07-16T13:25:24;33.83;43.21
77052;SHT30;65980;44.898;8.602;2023-07-16T13:28:28;33.85;43.09
77052;SHT30;65980;44.898;8.602;2023-07-16T13:31:32;33.96;41.70
77052;SHT30;65980;44.898;8.602;2023-07-16T13:34:35;34.01;42.16
77052;SHT30;65980;44.898;8.602;2023-07-16T13:37:40;34.14;41.22
77052;SHT30;65980;44.898;8.602;2023-07-16T13:40:45;33.94;41.87
77052;SHT30;65980;44.898;8.602;2023-07-16T13:43:49;34.03;41.77
77052;SHT30;65980;44.898;8.602;2023-07-16T13:46:53;33.93;42.20
77052;SHT30;65980;44.898;8.602;2023-07-16T13:49:58;34.23;42.08
77052;SHT30;65980;44.898;8.602;2023-07-16T13:53:02;34.14;41.30
77052;SHT30;65980;44.898;8.602;2023-07-16T13:56:08;34.01;41.46
77052;SHT30;65980;44.898;8.602;2023-07-16T13:59:12;34.23;41.01
77052;SHT30;65980;44.898;8.602;2023-07-16T14:02:18;34.42;40.37
77052;SHT30;65980;44.898;8.602;2023-07-16T14:05:23;34.79;39.12
77052;SHT30;65980;44.898;8.602;2023-07-16T14:08:27;34.73;38.79
77052;SHT30;65980;44.898;8.602;2023-07-16T14:11:31;34.40;39.41
77052;SHT30;65980;44.898;8.602;2023-07-16T14:14:36;34.55;39.70
77052;SHT30;65980;44.898;8.602;2023-07-16T14:17:41;34.56;39.76
77052;SHT30;65980;44.898;8.602;2023-07-16T14:20:45;34.51;39.40
77052;SHT30;65980;44.898;8.602;2023-07-16T14:23:48;34.52;39.40
77052;SHT30;65980;44.898;8.602;2023-07-16T14:26:53;34.52;39.82
77052;SHT30;65980;44.898;8.602;2023-07-16T14:29:57;34.28;40.11
77052;SHT30;65980;44.898;8.602;2023-07-16T14:33:01;34.15;40.64
77052;SHT30;65980;44.898;8.602;2023-07-16T14:36:08;34.15;40.44
77052;SHT30;65980;44.898;8.602;2023-07-16T14:39:12;33.96;40.79
77052;SHT30;65980;44.898;8.602;2023-07-16T14:42:16;33.96;39.40
77052;SHT30;65980;44.898;8.602;2023-07-16T14:45:21;34.62;39.06
77052;SHT30;65980;44.898;8.602;2023-07-16T14:48:26;34.79;38.69
77052;SHT30;65980;44.898;8.602;2023-07-16T14:51:31;34.70;38.85
77052;SHT30;65980;44.898;8.602;2023-07-16T14:54:36;34.59;38.94
77052;SHT30;65980;44.898;8.602;2023-07-16T14:57:42;34.58;39.21
77052;SHT30;65980;44.898;8.602;2023-07-16T15:00:47;34.31;38.78
77052;SHT30;65980;44.898;8.602;2023-07-16T15:03:52;34.28;39.41
77052;SHT30;65980;44.898;8.602;2023-07-16T15:06:57;34.20;39.44
77052;SHT30;65980;44.898;8.602;2023-07-16T15:10:03;34.01;39.84
77052;SHT30;65980;44.898;8.602;2023-07-16T15:13:08;33.76;40.16
77052;SHT30;65980;44.898;8.602;2023-07-16T15:16:12;33.80;39.89
77052;SHT30;65980;44.898;8.602;2023-07-16T15:19:18;33.69;40.33
77052;SHT30;65980;44.898;8.602;2023-07-16T15:22:23;33.52;40.49
77052;SHT30;65980;44.898;8.602;2023-07-16T15:25:28;33.36;40.81
77052;SHT30;65980;44.898;8.602;2023-07-16T15:28:32;33.51;40.90
77052;SHT30;65980;44.898;8.602;2023-07-16T15:31:39;33.35;41.33
77052;SHT30;65980;44.898;8.602;2023-07-16T15:34:43;33.58;41.12
77052;SHT30;65980;44.898;8.602;2023-07-16T15:37:46;33.70;40.26
77052;SHT30;65980;44.898;8.602;2023-07-16T15:40:52;33.93;39.54
77052;SHT30;65980;44.898;8.602;2023-07-16T15:43:56;33.85;38.82
77052;SHT30;65980;44.898;8.602;2023-07-16T15:47:02;33.85;39.49
77052;SHT30;65980;44.898;8.602;2023-07-16T15:50:07;33.80;39.83
77052;SHT30;65980;44.898;8.602;2023-07-16T15:53:12;33.51;41.23
77052;SHT30;65980;44.898;8.602;2023-07-16T15:56:17;33.36;41.22
77052;SHT30;65980;44.898;8.602;2023-07-16T15:59:20;33.29;42.42
77052;SHT30;65980;44.898;8.602;2023-07-16T16:02:25;33.19;42.76
77052;SHT30;65980;44.898;8.602;2023-07-16T16:05:30;33.10;41.07
77052;SHT30;65980;44.898;8.602;2023-07-16T16:08:35;33.00;41.45
77052;SHT30;65980;44.898;8.602;2023-07-16T16:11:41;33.00;41.54
77052;SHT30;65980;44.898;8.602;2023-07-16T16:14:45;33.31;41.42
77052;SHT30;65980;44.898;8.602;2023-07-16T16:17:48;33.35;40.48
77052;SHT30;65980;44.898;8.602;2023-07-16T16:20:53;33.21;41.59
77052;SHT30;65980;44.898;8.602;2023-07-16T16:23:58;33.28;42.05
77052;SHT30;65980;44.898;8.602;2023-07-16T16:27:08;33.15;41.91
77052;SHT30;65980;44.898;8.602;2023-07-16T16:30:12;33.21;42.06
77052;SHT30;65980;44.898;8.602;2023-07-16T16:33:17;33.97;40.41
77052;SHT30;65980;44.898;8.602;2023-07-16T16:36:22;34.69;37.21
77052;SHT30;65980;44.898;8.602;2023-07-16T16:39:25;34.47;38.55
77052;SHT30;65980;44.898;8.602;2023-07-16T16:42:30;35.10;38.30
77052;SHT30;65980;44.898;8.602;2023-07-16T16:45:35;36.24;35.74
77052;SHT30;65980;44.898;8.602;2023-07-16T16:48:46;37.91;33.21
77052;SHT30;65980;44.898;8.602;2023-07-16T16:51:50;38.64;32.47
77052;SHT30;65980;44.898;8.602;2023-07-16T16:54:55;37.31;34.02
77052;SHT30;65980;44.898;8.602;2023-07-16T16:58:00;35.45;36.70
77052;SHT30;65980;44.898;8.602;2023-07-16T17:01:03;34.68;38.18
77052;SHT30;65980;44.898;8.602;2023-07-16T17:04:08;33.77;40.10
77052;SHT30;65980;44.898;8.602;2023-07-16T17:07:12;33.36;40.10
77052;SHT30;65980;44.898;8.602;2023-07-16T17:10:17;33.12;41.22
77052;SHT30;65980;44.898;8.602;2023-07-16T17:13:22;33.31;40.57
77052;SHT30;65980;44.898;8.602;2023-07-16T17:16:25;33.63;40.38
77052;SHT30;65980;44.898;8.602;2023-07-16T17:19:30;33.93;39.69
77052;SHT30;65980;44.898;8.602;2023-07-16T17:22:33;34.21;38.89
77052;SHT30;65980;44.898;8.602;2023-07-16T17:25:37;33.58;40.18
77052;SHT30;65980;44.898;8.602;2023-07-16T17:28:42;33.06;41.25
77052;SHT30;65980;44.898;8.602;2023-07-16T17:31:45;32.66;42.60
77052;SHT30;65980;44.898;8.602;2023-07-16T17:34:51;32.42;43.37
77052;SHT30;65980;44.898;8.602;2023-07-16T17:37:56;32.25;44.00
77052;SHT30;65980;44.898;8.602;2023-07-16T17:41:01;32.15;43.99
77052;SHT30;65980;44.898;8.602;2023-07-16T17:44:06;31.97;44.66
77052;SHT30;65980;44.898;8.602;2023-07-16T17:47:11;31.92;44.95
77052;SHT30;65980;44.898;8.602;2023-07-16T17:50:16;31.80;45.81
77052;SHT30;65980;44.898;8.602;2023-07-16T17:53:21;31.67;45.78
77052;SHT30;65980;44.898;8.602;2023-07-16T17:56:26;31.63;46.01
77052;SHT30;65980;44.898;8.602;2023-07-16T17:59:32;31.60;46.29
77052;SHT30;65980;44.898;8.602;2023-07-16T18:02:37;31.33;46.83
77052;SHT30;65980;44.898;8.602;2023-07-16T18:05:42;31.26;47.38
77052;SHT30;65980;44.898;8.602;2023-07-16T18:08:47;31.28;47.81
77052;SHT30;65980;44.898;8.602;2023-07-16T18:11:50;31.16;47.69
77052;SHT30;65980;44.898;8.602;2023-07-16T18:14:54;31.03;48.07
77052;SHT30;65980;44.898;8.602;2023-07-16T18:18:01;31.02;48.24
77052;SHT30;65980;44.898;8.602;2023-07-16T18:21:06;30.90;48.75
77052;SHT30;65980;44.898;8.602;2023-07-16T18:24:12;30.85;49.22
77052;SHT30;65980;44.898;8.602;2023-07-16T18:27:16;30.68;49.67
77052;SHT30;65980;44.898;8.602;2023-07-16T18:30:20;30.46;50.63
77052;SHT30;65980;44.898;8.602;2023-07-16T18:33:25;30.40;50.73
77052;SHT30;65980;44.898;8.602;2023-07-16T18:36:30;30.50;50.67
77052;SHT30;65980;44.898;8.602;2023-07-16T18:39:34;30.39;51.38
77052;SHT30;65980;44.898;8.602;2023-07-16T18:42:37;30.33;51.55
77052;SHT30;65980;44.898;8.602;2023-07-16T18:45:42;30.28;51.74
77052;SHT30;65980;44.898;8.602;2023-07-16T18:48:46;30.18;52.22
77052;SHT30;65980;44.898;8.602;2023-07-16T18:51:51;30.12;52.51
77052;SHT30;65980;44.898;8.602;2023-07-16T18:54:56;29.98;52.68
77052;SHT30;65980;44.898;8.602;2023-07-16T18:58:00;29.98;53.23
77052;SHT30;65980;44.898;8.602;2023-07-16T19:01:05;29.82;53.53
77052;SHT30;65980;44.898;8.602;2023-07-16T19:04:10;29.82;53.52
77052;SHT30;65980;44.898;8.602;2023-07-16T19:07:13;29.75;53.63
77052;SHT30;65980;44.898;8.602;2023-07-16T19:10:18;29.57;54.13
77052;SHT30;65980;44.898;8.602;2023-07-16T19:13:21;29.58;54.16
77052;SHT30;65980;44.898;8.602;2023-07-16T19:16:25;29.58;53.98
77052;SHT30;65980;44.898;8.602;2023-07-16T19:19:29;29.57;54.04
77052;SHT30;65980;44.898;8.602;2023-07-16T19:22:34;29.42;54.37
77052;SHT30;65980;44.898;8.602;2023-07-16T19:25:39;29.32;54.48
77052;SHT30;65980;44.898;8.602;2023-07-16T19:28:42;29.30;54.49
77052;SHT30;65980;44.898;8.602;2023-07-16T19:31:46;29.23;54.61
77052;SHT30;65980;44.898;8.602;2023-07-16T19:34:51;29.23;54.48